YAM weather

Sault Ste Marie Airport
Sault Ste Marie, Ontario, Canada

Public forecast

Using degrees Celsius for public forecast. Weather courtesy of forecast.io.

METAR (pilot weather report)

Retrieved 2019/05/22 16:00 UTC (8 minutes ago):

CYAM 221600Z 09008G17KT 15SM -SHRA BKN057 BKN094 OVC150 09/07 A3005 RMK CU6AC1AS1 SLP181

TAF (pilot weather forecast)

Retrieved 2019/05/22 14:45 UTC (1 hour ago):

TAF TAF CYAM 221343Z 2214/2302 11010G20KT P6SM SCT020 OVC070 TEMPO 2214/2218 P6SM -SHRA BKN020 OVC070 FM221800 12012G22KT P6SM -RA OVC050 TEMPO 2218/2302 P6SM -SHRA BKN020 OVC050 RMK NXT FCST BY 222000Z